Time;durP1;ratioP1;P1;durP2;ratioP2;P2;SDS_P1;SDS_P2;PMS_P1;PMS_P2;Temp;Humidity;BMP_temperature;BMP_pressure;BME280_temperature;BME280_humidity;BME280_pressure;Samples;Min_cycle;Max_cycle;Signal;HPM_P1;HPM_P2
2023/09/05 00:00:22;;;;;;;5.68;3.63;;;;;;;14.00;100.00;97772.88;4979735;28;20049;-62
2023/09/05 00:02:49;;;;;;;5.78;3.72;;;;;;;14.00;100.00;97772.88;4976348;28;20511;-61
2023/09/05 00:05:18;;;;;;;6.40;3.63;;;;;;;14.05;100.00;97770.19;4973728;28;20092;-61
2023/09/05 00:07:45;;;;;;;10.00;3.95;;;;;;;14.02;100.00;97770.72;4983184;28;20125;-61
2023/09/05 00:10:12;;;;;;;7.45;4.32;;;;;;;14.08;100.00;97774.28;4989053;28;20070;-61
2023/09/05 00:12:41;;;;;;;5.88;3.83;;;;;;;14.02;100.00;97776.16;4980876;28;20744;-60
2023/09/05 00:15:12;;;;;;;5.53;3.85;;;;;;;13.89;100.00;97767.38;4976922;28;20121;-61
2023/09/05 00:17:40;;;;;;;6.75;4.35;;;;;;;13.88;100.00;97768.47;4977711;28;20125;-61
2023/09/05 00:20:07;;;;;;;10.05;3.78;;;;;;;13.90;100.00;97766.28;4985218;28;20061;-61
2023/09/05 00:22:34;;;;;;;6.72;3.95;;;;;;;13.85;100.00;97769.00;4981903;28;20042;-61
2023/09/05 00:25:01;;;;;;;7.45;4.10;;;;;;;13.83;100.00;97763.00;4977384;28;20102;-62
2023/09/05 00:27:28;;;;;;;6.32;3.50;;;;;;;13.74;100.00;97762.69;5006234;28;20104;-62
2023/09/05 00:29:57;;;;;;;7.95;4.07;;;;;;;13.70;100.00;97768.91;4986502;28;20049;-62
2023/09/05 00:32:23;;;;;;;8.77;4.07;;;;;;;13.61;100.00;97772.13;4985348;28;20066;-61
2023/09/05 00:34:50;;;;;;;5.32;3.83;;;;;;;13.63;100.00;97769.97;4982212;28;20042;-61
2023/09/05 00:37:21;;;;;;;6.40;3.58;;;;;;;13.58;100.00;97764.50;4993176;28;20763;-61
2023/09/05 00:39:48;;;;;;;5.65;3.40;;;;;;;13.44;100.00;97765.97;4991193;28;20046;-61
2023/09/05 00:42:16;;;;;;;6.78;3.42;;;;;;;13.34;100.00;97767.53;4989186;28;20042;-61
2023/09/05 00:44:47;;;;;;;5.18;3.40;;;;;;;13.30;100.00;97765.63;4982686;28;20425;-61
2023/09/05 00:47:14;;;;;;;;;;;;;;;13.29;100.00;97772.13;4985308;28;20506;-61
2023/09/05 00:49:47;;;;;;;7.35;4.07;;;;;;;13.23;100.00;97763.94;4975410;28;20037;-61
2023/09/05 00:52:14;;;;;;;6.13;3.67;;;;;;;13.20;100.00;97766.34;4979145;28;20076;-61
2023/09/05 00:54:42;;;;;;;5.55;3.45;;;;;;;13.22;100.00;97765.00;4965162;28;20096;-61
2023/09/05 00:57:17;;;;;;;5.63;3.70;;;;;;;13.14;100.00;97765.50;4986438;28;20042;-62
2023/09/05 00:59:44;;;;;;;7.28;3.80;;;;;;;13.15;100.00;97767.13;4984068;28;20044;-61
2023/09/05 01:02:10;;;;;;;5.82;3.65;;;;;;;13.17;100.00;97767.69;5000255;28;20046;-62
2023/09/05 01:04:37;;;;;;;5.22;3.53;;;;;;;13.16;100.00;97759.78;4976030;28;20035;-61
2023/09/05 01:07:20;;;;;;;5.45;3.00;;;;;;;13.12;100.00;97760.31;4975639;28;20446;-61
2023/09/05 01:09:56;;;;;;;6.25;3.80;;;;;;;13.03;100.00;97758.31;4985668;28;20472;-61
2023/09/05 01:12:23;;;;;;;5.15;3.13;;;;;;;12.95;100.00;97763.16;4979996;28;20042;-61
2023/09/05 01:14:50;;;;;;;6.30;3.50;;;;;;;12.88;100.00;97763.38;4967934;28;20046;-62
2023/09/05 01:17:16;;;;;;;6.55;3.58;;;;;;;12.64;100.00;97773.72;4988258;28;20043;-61
2023/09/05 01:19:44;;;;;;;6.88;3.72;;;;;;;12.61;100.00;97769.59;4980261;28;20108;-61
2023/09/05 01:22:24;;;;;;;6.00;3.50;;;;;;;12.63;100.00;97768.56;4982593;28;20108;-61
2023/09/05 01:24:51;;;;;;;6.40;3.50;;;;;;;12.63;100.00;97768.56;4978760;28;20030;-61
2023/09/05 01:27:22;;;;;;;7.97;3.88;;;;;;;12.63;100.00;97763.91;4982811;28;20455;-61
2023/09/05 01:29:50;;;;;;;5.68;3.42;;;;;;;12.62;100.00;97762.28;4954005;28;20498;-62
2023/09/05 01:32:17;;;;;;;6.93;3.78;;;;;;;12.73;100.00;97768.66;4964753;28;20714;-61
2023/09/05 01:34:44;;;;;;;5.35;3.33;;;;;;;12.63;100.00;97766.63;4967829;28;20060;-61
2023/09/05 01:37:15;;;;;;;6.07;3.17;;;;;;;12.67;100.00;97765.06;4965587;28;20141;-61
2023/09/05 01:39:42;;;;;;;4.80;3.10;;;;;;;12.65;100.00;97766.38;4975867;28;20438;-61
2023/09/05 01:42:09;;;;;;;6.35;3.00;;;;;;;12.59;100.00;97760.91;4970604;28;20039;-61
2023/09/05 01:44:36;;;;;;;7.32;3.00;;;;;;;12.47;100.00;97769.22;4973764;28;21224;-62
2023/09/05 01:47:03;;;;;;;5.68;3.40;;;;;;;12.47;100.00;97776.53;4985163;28;20069;-62
2023/09/05 01:53:50;;;;;;;5.50;3.05;;;;;;;12.29;100.00;97764.91;4971825;28;20070;-61
2023/09/05 01:56:16;;;;;;;6.40;2.85;;;;;;;12.15;100.00;97763.66;4971748;28;20414;-61
2023/09/05 01:58:43;;;;;;;4.90;2.90;;;;;;;12.10;100.00;97765.22;4980096;28;20117;-61
2023/09/05 02:01:10;;;;;;;8.13;2.70;;;;;;;12.17;100.00;97761.50;4951758;28;20050;-61
2023/09/05 02:03:38;;;;;;;5.35;3.00;;;;;;;12.12;100.00;97767.69;4973044;28;20047;-61
2023/09/05 02:06:04;;;;;;;5.35;2.75;;;;;;;12.03;100.00;97771.88;4948913;28;20093;-61
2023/09/05 02:08:34;;;;;;;5.47;3.22;;;;;;;12.05;100.00;97762.44;4967089;28;20094;-61
2023/09/05 02:11:01;;;;;;;5.30;2.83;;;;;;;12.02;100.00;97757.50;4972799;28;20057;-61
2023/09/05 02:13:31;;;;;;;5.40;2.88;;;;;;;12.12;100.00;97756.03;4933017;28;20144;-61
2023/09/05 02:15:58;;;;;;;6.13;3.13;;;;;;;12.06;100.00;97755.13;4932148;28;20168;-61
2023/09/05 02:18:24;;;;;;;4.72;2.58;;;;;;;12.12;100.00;97756.03;4932998;28;20565;-61
2023/09/05 02:20:57;;;;;;;5.85;3.28;;;;;;;12.00;100.00;97756.94;4928219;28;20073;-61
2023/09/05 02:23:24;;;;;;;5.68;2.95;;;;;;;12.01;100.00;97749.63;5002879;28;20070;-61
2023/09/05 02:26:01;;;;;;;5.43;2.75;;;;;;;11.96;100.00;97756.63;4970241;28;20050;-61
2023/09/05 02:28:28;;;;;;;6.55;2.95;;;;;;;11.93;100.00;97764.44;4978100;28;20043;-61
2023/09/05 02:30:56;;;;;;;4.60;2.70;;;;;;;12.01;100.00;97763.19;4974247;28;20048;-62
2023/09/05 02:33:23;;;;;;;5.03;2.75;;;;;;;11.97;100.00;97766.41;4999664;28;20048;-61
2023/09/05 02:35:50;;;;;;;5.97;2.72;;;;;;;11.89;100.00;97764.13;4974612;28;20691;-61
2023/09/05 02:38:17;;;;;;;4.65;2.65;;;;;;;11.80;100.00;97765.63;4959966;28;20054;-61
2023/09/05 02:40:47;;;;;;;4.90;2.70;;;;;;;11.81;100.00;97764.56;4975466;28;20049;-61
2023/09/05 02:43:14;;;;;;;5.90;2.80;;;;;;;11.78;100.00;97765.03;4991955;28;20042;-61
2023/09/05 02:45:50;;;;;;;5.43;2.67;;;;;;;11.76;100.00;97762.56;4978051;28;20031;-61
2023/09/05 02:48:17;;;;;;;6.43;2.95;;;;;;;11.79;100.00;97772.13;4970473;28;20050;-61
2023/09/05 02:50:43;;;;;;;5.22;2.90;;;;;;;11.78;100.00;97771.31;4982838;28;20042;-61
2023/09/05 02:53:10;;;;;;;5.03;2.80;;;;;;;11.88;100.00;97770.63;4966863;28;20041;-61
2023/09/05 02:55:46;;;;;;;4.63;2.38;;;;;;;12.01;100.00;97765.91;4982928;28;20043;-61
2023/09/05 02:58:12;;;;;;;4.47;2.50;;;;;;;12.08;100.00;97763.84;4970189;28;20070;-61
2023/09/05 03:00:39;;;;;;;4.53;2.58;;;;;;;12.15;100.00;97766.38;4969124;28;20046;-61
2023/09/05 03:03:05;;;;;;;5.13;2.70;;;;;;;12.13;100.00;97763.09;4986967;28;20043;-61
2023/09/05 03:05:32;;;;;;;5.82;2.80;;;;;;;12.07;100.00;97767.63;4978641;28;20029;-61
2023/09/05 03:07:59;;;;;;;7.75;2.92;;;;;;;12.00;100.00;97762.38;4971042;28;20046;-61
2023/09/05 03:10:25;;;;;;;4.43;2.42;;;;;;;11.88;100.00;97767.91;4968367;28;20114;-61
2023/09/05 03:12:52;;;;;;;5.43;2.65;;;;;;;11.81;100.00;97762.66;4980089;28;20051;-61
2023/09/05 03:15:20;;;;;;;6.55;3.38;;;;;;;11.76;100.00;97759.88;4970395;28;20308;-62
2023/09/05 03:17:47;;;;;;;3.88;2.20;;;;;;;11.74;100.00;97763.91;4963050;28;20537;-61
2023/09/05 03:20:15;;;;;;;5.25;2.83;;;;;;;11.79;100.00;97762.09;4969627;28;20130;-61
2023/09/05 03:22:42;;;;;;;4.60;2.58;;;;;;;11.71;100.00;97755.22;4982696;28;20047;-56
2023/09/05 03:25:09;;;;;;;5.93;2.70;;;;;;;11.66;100.00;97759.72;4973176;28;20040;-53
2023/09/05 03:27:36;;;;;;;5.88;2.55;;;;;;;11.44;100.00;97763.22;4961533;28;20046;-56
2023/09/05 03:30:05;;;;;;;6.57;2.55;;;;;;;11.20;100.00;97757.97;4959164;28;20419;-55
2023/09/05 03:32:32;;;;;;;8.75;3.47;;;;;;;11.15;100.00;97768.72;4981238;28;20100;-57
2023/09/05 03:34:59;;;;;;;4.53;2.45;;;;;;;11.05;100.00;97763.94;4963831;28;20074;-54
2023/09/05 03:37:28;;;;;;;4.85;2.67;;;;;;;10.99;100.00;97759.53;4959963;28;20130;-55
2023/09/05 03:39:54;;;;;;;4.43;2.58;;;;;;;11.01;100.00;97757.38;4955635;28;20559;-56
2023/09/05 03:42:22;;;;;;;5.03;2.97;;;;;;;10.99;100.00;97754.91;4983949;28;20042;-56
2023/09/05 03:44:50;;;;;;;6.53;3.22;;;;;;;10.99;100.00;97749.47;4962983;28;20037;-56
2023/09/05 03:47:17;;;;;;;5.22;3.05;;;;;;;10.98;100.00;97750.56;4964791;28;20105;-57
2023/09/05 03:49:43;;;;;;;5.55;2.58;;;;;;;11.03;100.00;97750.63;4967286;28;20045;-55
2023/09/05 03:52:10;;;;;;;4.53;2.42;;;;;;;11.01;100.00;97762.78;4963828;28;20130;-54
2023/09/05 03:54:37;;;;;;;6.97;2.85;;;;;;;11.00;100.00;97755.75;4981175;28;20510;-55
2023/09/05 03:57:04;;;;;;;4.40;2.50;;;;;;;10.98;100.00;97750.56;4982182;28;20035;-55
2023/09/05 03:59:31;;;;;;;5.70;2.80;;;;;;;10.94;100.00;97746.69;4961645;28;20238;-54
2023/09/05 04:01:59;;;;;;;5.72;3.10;;;;;;;10.97;100.00;97745.38;4976909;28;20044;-53
2023/09/05 04:04:25;;;;;;;5.18;2.65;;;;;;;11.06;100.00;97743.94;4964495;28;20043;-57
2023/09/05 04:06:52;;;;;;;5.35;2.80;;;;;;;11.11;100.00;97748.59;4972083;28;20054;-55
2023/09/05 04:09:18;;;;;;;5.55;2.70;;;;;;;11.14;100.00;97748.94;4966207;28;20050;-54
2023/09/05 04:11:45;;;;;;;9.40;3.17;;;;;;;11.17;100.00;97743.00;4973631;28;20069;-55
2023/09/05 04:14:12;;;;;;;5.07;3.10;;;;;;;11.17;100.00;97756.56;4965044;28;20061;-54
2023/09/05 04:16:38;;;;;;;4.82;2.85;;;;;;;11.13;100.00;97749.19;4970830;28;20061;-55
2023/09/05 04:19:06;;;;;;;4.97;2.72;;;;;;;11.13;100.00;97754.59;4960685;28;20054;-54
2023/09/05 04:21:32;;;;;;;5.32;3.00;;;;;;;11.15;100.00;97749.75;4955577;28;20054;-55
2023/09/05 04:23:59;;;;;;;5.25;2.70;;;;;;;11.16;100.00;97752.22;4983481;28;20517;-56
2023/09/05 04:26:25;;;;;;;6.00;2.92;;;;;;;11.20;100.00;97749.81;4958543;28;20126;-54
2023/09/05 04:28:53;;;;;;;6.03;2.65;;;;;;;11.33;100.00;97751.41;4964568;28;20440;-57
2023/09/05 04:31:19;;;;;;;5.25;2.83;;;;;;;11.25;100.00;97746.38;4935133;28;20061;-56
2023/09/05 04:33:46;;;;;;;5.85;2.80;;;;;;;11.21;100.00;97756.91;4937275;28;20114;-56
2023/09/05 04:36:13;;;;;;;7.00;2.95;;;;;;;11.11;100.00;97752.13;4956009;28;20967;-56
2023/09/05 04:38:43;;;;;;;5.43;2.60;;;;;;;10.97;100.00;97751.63;4976290;28;20042;-57
2023/09/05 04:41:10;;;;;;;5.43;2.63;;;;;;;11.03;100.00;97747.94;4955494;28;20689;-55
2023/09/05 04:43:37;;;;;;;5.78;3.42;;;;;;;11.09;100.00;97746.13;4979563;28;20038;-55
2023/09/05 04:46:05;;;;;;;4.68;2.60;;;;;;;11.03;100.00;97745.22;4960813;28;20078;-55
2023/09/05 04:48:32;;;;;;;6.72;2.65;;;;;;;11.09;100.00;97742.63;4982697;28;20131;-57
2023/09/05 04:51:01;;;;;;;6.05;3.08;;;;;;;11.21;100.00;97743.34;4963469;28;20438;-57
2023/09/05 04:53:28;;;;;;;6.20;2.92;;;;;;;11.18;100.00;97747.34;4964007;28;20054;-56
2023/09/05 04:55:59;;;;;;;5.65;2.63;;;;;;;11.16;100.00;97741.38;4951648;28;20611;-54
2023/09/05 04:58:27;;;;;;;7.38;3.03;;;;;;;11.26;100.00;97745.31;4967947;28;20066;-62
2023/09/05 05:00:56;;;;;;;4.90;2.85;;;;;;;11.27;100.00;97749.66;4965282;28;20044;-61
2023/09/05 05:03:26;;;;;;;6.47;3.03;;;;;;;11.37;100.00;97754.41;4998807;28;20120;-61
2023/09/05 05:05:53;;;;;;;4.15;2.38;;;;;;;11.35;100.00;97764.72;4975014;28;20041;-61
2023/09/05 05:08:20;;;;;;;5.88;2.55;;;;;;;11.32;100.00;97755.97;4973799;28;20537;-61
2023/09/05 05:10:46;;;;;;;4.85;2.60;;;;;;;11.50;100.00;97764.13;4976608;28;20048;-61
2023/09/05 05:13:13;;;;;;;7.43;2.70;;;;;;;11.55;100.00;97751.47;4973559;28;20061;-62
2023/09/05 05:15:40;;;;;;;5.40;2.70;;;;;;;11.56;100.00;97752.25;4964831;28;20050;-62
2023/09/05 05:18:06;;;;;;;5.25;2.53;;;;;;;11.49;100.00;97757.88;4974390;28;20054;-61
2023/09/05 05:20:35;;;;;;;4.75;2.45;;;;;;;11.54;100.00;97757.13;4974124;28;20462;-62
2023/09/05 05:23:02;;;;;;;5.65;2.63;;;;;;;11.63;100.00;97760.22;4975920;28;20089;-61
2023/09/05 05:25:29;;;;;;;5.80;2.78;;;;;;;11.70;100.00;97766.31;4964179;28;20044;-62
2023/09/05 05:27:55;;;;;;;5.30;3.03;;;;;;;11.76;100.00;97765.28;4975772;28;20057;-62
2023/09/05 05:30:22;;;;;;;6.05;3.00;;;;;;;11.80;100.00;97762.91;4984186;28;20047;-61
2023/09/05 05:32:48;;;;;;;7.60;3.00;;;;;;;11.76;100.00;97764.50;4976435;28;20071;-62
2023/09/05 05:35:15;;;;;;;6.78;2.72;;;;;;;11.84;100.00;97762.16;4992933;28;20592;-61
2023/09/05 05:37:41;;;;;;;5.38;3.33;;;;;;;11.93;100.00;97764.44;4965723;28;20066;-61
2023/09/05 05:40:10;;;;;;;6.05;3.40;;;;;;;12.06;100.00;97755.13;4967171;28;20054;-61
2023/09/05 05:42:37;;;;;;;5.35;2.72;;;;;;;12.16;100.00;97766.13;4967890;28;20046;-61
2023/09/05 05:45:04;;;;;;;6.00;3.05;;;;;;;12.30;100.00;97768.44;4972915;28;20042;-61
2023/09/05 05:47:31;;;;;;;4.80;2.58;;;;;;;12.47;100.00;97766.50;4975266;28;20125;-61
2023/09/05 05:49:58;;;;;;;5.00;2.80;;;;;;;12.49;100.00;97771.66;4987996;28;20061;-61
2023/09/05 05:52:24;;;;;;;4.68;2.50;;;;;;;12.54;100.00;97785.31;4977074;28;20051;-62
2023/09/05 05:54:51;;;;;;;4.85;2.67;;;;;;;12.59;100.00;97788.06;4973415;28;20045;-61
2023/09/05 05:57:17;;;;;;;4.63;2.58;;;;;;;12.73;100.00;97787.66;4968716;28;20112;-61
2023/09/05 05:59:44;;;;;;;5.15;2.53;;;;;;;12.87;100.00;97790.81;4985462;28;20551;-61
2023/09/05 06:02:10;;;;;;;5.05;2.63;;;;;;;13.04;100.00;97787.97;4997816;28;20109;-62
2023/09/05 06:04:37;;;;;;;4.68;2.50;;;;;;;13.16;100.00;97787.78;4965821;28;20567;-61
2023/09/05 06:07:04;;;;;;;5.57;2.65;;;;;;;13.31;100.00;97783.56;4971597;28;20051;-61
2023/09/05 06:09:30;;;;;;;4.50;2.20;;;;;;;13.45;100.00;97782.03;4982875;28;20420;-62
2023/09/05 06:11:58;;;;;;;5.22;2.78;;;;;;;13.56;100.00;97785.69;4971749;28;20051;-62
2023/09/05 06:14:25;;;;;;;5.10;2.70;;;;;;;13.63;100.00;97783.56;4978360;28;20081;-62
2023/09/05 06:16:52;;;;;;;3.75;2.15;;;;;;;13.76;100.00;97782.31;4974607;28;20379;-61
2023/09/05 06:19:18;;;;;;;3.97;2.05;;;;;;;13.88;100.00;97779.38;4978658;28;20069;-62
2023/09/05 06:21:46;;;;;;;4.38;2.53;;;;;;;14.01;100.00;97774.53;4967500;28;20065;-62
2023/09/05 06:24:13;;;;;;;4.43;2.53;;;;;;;14.13;100.00;97782.47;4971637;28;20694;-62
2023/09/05 06:26:41;;;;;;;5.28;2.40;;;;;;;14.25;100.00;97784.97;4973248;28;20100;-61
2023/09/05 06:29:08;;;;;;;4.63;2.75;;;;;;;14.38;100.00;97786.41;4983080;28;20051;-62
2023/09/05 06:31:35;;;;;;;5.28;2.40;;;;;;;14.51;100.00;97794.06;4982187;28;20044;-62
2023/09/05 06:34:02;;;;;;;4.65;2.45;;;;;;;14.62;100.00;97788.66;4978492;28;20494;-62
2023/09/05 06:36:28;;;;;;;5.15;2.22;;;;;;;14.73;100.00;97792.22;4977733;28;20070;-62
2023/09/05 06:38:55;;;;;;;4.38;2.25;;;;;;;14.86;100.00;97785.47;4988964;28;20058;-62
2023/09/05 06:41:21;;;;;;;4.00;2.28;;;;;;;15.04;100.00;97789.59;4969081;28;20134;-62
2023/09/05 06:43:50;;;;;;;5.22;2.28;;;;;;;15.37;95.00;97783.88;4971473;28;20043;-62
2023/09/05 06:46:16;;;;;;;4.05;1.80;;;;;;;15.67;92.41;97785.75;4980455;28;20047;-62
2023/09/05 06:48:43;;;;;;;3.50;1.85;;;;;;;15.95;90.56;97789.00;4969753;28;20099;-61
2023/09/05 06:51:09;;;;;;;4.30;1.73;;;;;;;16.28;86.81;97782.38;4967357;28;20035;-62
2023/09/05 06:53:36;;;;;;;3.35;2.08;;;;;;;16.62;83.73;97795.34;4985890;28;20829;-61
2023/09/05 06:56:03;;;;;;;5.65;2.08;;;;;;;16.77;82.24;97797.16;4965110;28;20042;-61
2023/09/05 06:58:29;;;;;;;4.68;2.10;;;;;;;16.87;83.07;97794.34;4974428;28;20055;-62
2023/09/05 07:00:56;;;;;;;5.00;1.80;;;;;;;17.17;78.15;97797.19;4979125;28;20042;-62
2023/09/05 07:03:25;;;;;;;3.83;2.10;;;;;;;17.33;77.98;97784.22;4974917;28;20134;-62
2023/09/05 07:05:53;;;;;;;5.28;1.98;;;;;;;17.45;78.31;97788.50;4980349;28;20042;-62
2023/09/05 07:08:23;;;;;;;3.45;1.70;;;;;;;17.49;78.40;97784.06;4973971;28;20492;-61
2023/09/05 07:10:50;;;;;;;9.02;2.15;;;;;;;17.54;77.60;97790.31;4970647;28;20080;-61
2023/09/05 07:13:17;;;;;;;3.88;1.73;;;;;;;17.59;76.30;97788.66;4969484;28;20051;-61
2023/09/05 07:15:44;;;;;;;5.45;2.08;;;;;;;17.63;76.56;97786.97;4965320;28;20063;-62
2023/09/05 07:18:13;;;;;;;4.13;1.92;;;;;;;17.73;77.02;97794.28;4970451;28;20065;-61
2023/09/05 07:20:40;;;;;;;3.90;1.85;;;;;;;17.79;76.74;97793.94;4933469;28;20071;-61
2023/09/05 07:23:07;;;;;;;3.92;1.80;;;;;;;17.85;76.25;97794.69;4991477;28;20051;-62
2023/09/05 07:25:38;;;;;;;4.00;1.95;;;;;;;17.89;76.71;97784.81;4975832;28;20054;-61
2023/09/05 07:28:05;;;;;;;4.95;2.08;;;;;;;17.95;76.13;97782.84;4971150;28;20042;-61
2023/09/05 07:30:33;;;;;;;3.60;1.70;;;;;;;18.07;75.67;97783.22;4974068;28;20051;-61
2023/09/05 07:33:00;;;;;;;5.25;1.95;;;;;;;18.23;75.74;97785.81;4967437;28;20042;-62
2023/09/05 07:35:26;;;;;;;5.00;2.10;;;;;;;18.29;75.79;97784.66;4917582;28;20487;-61
2023/09/05 07:37:53;;;;;;;4.13;1.80;;;;;;;18.32;76.11;97789.53;4925050;28;20051;-60
2023/09/05 07:40:22;;;;;;;3.97;1.75;;;;;;;18.44;75.40;97785.56;4979530;28;20125;-61
2023/09/05 07:42:50;;;;;;;5.93;1.85;;;;;;;18.50;75.10;97780.84;4960787;28;20469;-62
2023/09/05 07:45:17;;;;;;;4.43;1.50;;;;;;;18.57;73.72;97782.09;4966874;28;20573;-60
2023/09/05 07:47:44;;;;;;;4.18;2.10;;;;;;;18.62;73.06;97778.50;4970332;28;20906;-61
2023/09/05 07:50:11;;;;;;;5.57;2.08;;;;;;;18.73;72.14;97779.16;4976514;28;20070;-60
2023/09/05 07:52:38;;;;;;;3.58;1.77;;;;;;;18.76;72.50;97781.28;4968401;28;20076;-62
2023/09/05 07:55:05;;;;;;;3.75;1.77;;;;;;;18.87;72.10;97787.44;4971439;28;20739;-62
2023/09/05 07:57:31;;;;;;;4.30;2.00;;;;;;;18.95;72.53;97786.78;4961336;28;20749;-62
2023/09/05 07:59:58;;;;;;;3.65;1.77;;;;;;;19.03;72.23;97790.81;4939973;28;20055;-61
2023/09/05 08:02:25;;;;;;;5.05;1.70;;;;;;;19.10;71.13;97782.22;4956775;28;20727;-61
2023/09/05 08:04:51;;;;;;;4.68;1.80;;;;;;;19.20;71.26;97786.75;4953343;28;20053;-61
2023/09/05 08:07:18;;;;;;;4.68;1.75;;;;;;;19.36;74.59;97782.63;4946967;28;20051;-61
2023/09/05 08:09:44;;;;;;;3.60;1.60;;;;;;;19.49;68.83;97786.53;4956005;28;20054;-62
2023/09/05 08:12:11;;;;;;;5.68;1.80;;;;;;;19.67;66.95;97788.69;4983055;28;20587;-61
2023/09/05 08:14:38;;;;;;;3.92;1.48;;;;;;;19.79;66.65;97782.75;4966350;28;20122;-61
2023/09/05 08:17:04;;;;;;;4.13;1.52;;;;;;;19.94;65.34;97782.44;4960456;28;20042;-61
2023/09/05 08:19:32;;;;;;;3.58;1.98;;;;;;;20.03;65.04;97785.34;4967976;28;20536;-60
2023/09/05 08:21:58;;;;;;;3.25;2.00;;;;;;;20.12;65.79;97789.00;4990524;28;20073;-61
2023/09/05 08:24:25;;;;;;;4.22;1.50;;;;;;;20.20;65.00;97783.91;4963987;28;20043;-61
2023/09/05 08:26:52;;;;;;;3.95;1.63;;;;;;;20.31;65.80;97792.78;4959230;28;20138;-61
2023/09/05 08:29:20;;;;;;;3.42;1.40;;;;;;;20.35;64.74;97791.84;4966110;28;20096;-61
2023/09/05 08:31:47;;;;;;;6.18;1.85;;;;;;;20.41;64.58;97795.31;4993709;28;20035;-60
2023/09/05 08:34:14;;;;;;;8.13;2.33;;;;;;;20.57;64.15;97789.50;4966503;28;20082;-62
2023/09/05 08:36:41;;;;;;;3.13;1.30;;;;;;;20.59;63.01;97795.50;4978700;28;20039;-64
2023/09/05 08:39:08;;;;;;;2.72;1.33;;;;;;;20.65;61.79;97797.81;4976192;28;20079;-61
2023/09/05 08:41:34;;;;;;;2.92;1.40;;;;;;;20.67;61.85;97787.34;5003525;28;20089;-61
2023/09/05 08:44:02;;;;;;;3.63;1.40;;;;;;;20.73;60.71;97800.97;4975858;28;20749;-61
2023/09/05 08:46:29;;;;;;;4.05;1.35;;;;;;;20.83;61.67;97797.19;4967020;28;20498;-62
2023/09/05 08:48:56;;;;;;;5.47;1.65;;;;;;;20.86;63.05;97789.13;4968325;28;20668;-60
2023/09/05 08:51:32;;;;;;;6.03;1.40;;;;;;;20.95;60.27;97796.66;4964956;28;20050;-61
2023/09/05 08:54:01;;;;;;;3.60;1.50;;;;;;;21.14;59.46;97796.50;5003716;28;20058;-61
2023/09/05 08:56:28;;;;;;;5.78;1.67;;;;;;;21.20;60.01;97789.78;4975632;28;20039;-62
2023/09/05 08:58:59;;;;;;;2.65;1.33;;;;;;;21.32;61.40;97780.94;4970172;28;20113;-61
2023/09/05 09:01:26;;;;;;;3.30;1.98;;;;;;;21.42;60.66;97779.88;4976654;28;20050;-61
2023/09/05 09:03:56;;;;;;;3.80;1.48;;;;;;;21.43;59.52;97784.25;4972281;28;20640;-61
2023/09/05 09:06:24;;;;;;;4.43;1.55;;;;;;;21.43;58.16;97776.81;4988502;28;20212;-60
2023/09/05 09:08:52;;;;;;;3.95;1.50;;;;;;;21.49;58.37;97771.16;4966868;28;20054;-61
2023/09/05 09:11:21;;;;;;;3.28;1.63;;;;;;;21.56;58.70;97775.09;4972743;28;20660;-61
2023/09/05 09:13:51;;;;;;;5.10;1.40;;;;;;;21.61;59.68;97779.69;4980334;28;20058;-61
2023/09/05 09:16:18;;;;;;;4.20;1.92;;;;;;;21.62;59.30;97774.97;4961288;28;20082;-62
2023/09/05 09:18:49;;;;;;;4.15;1.60;;;;;;;21.67;59.42;97772.88;4980577;28;20069;-62
2023/09/05 09:21:20;;;;;;;3.93;1.70;;;;;;;21.75;57.93;97771.34;4979935;28;20128;-63
2023/09/05 09:23:50;;;;;;;3.55;1.50;;;;;;;21.85;57.75;97777.72;4968501;28;20042;-62
2023/09/05 09:26:16;;;;;;;3.33;1.58;;;;;;;21.99;57.73;97774.84;4963553;28;20535;-61
2023/09/05 09:28:43;;;;;;;3.20;1.60;;;;;;;22.12;58.39;97775.88;4965912;28;20760;-62
2023/09/05 09:31:12;;;;;;;2.75;1.27;;;;;;;22.20;58.13;97770.41;4976400;28;20661;-62
2023/09/05 09:33:40;;;;;;;4.53;1.42;;;;;;;22.31;57.56;97772.88;4997735;28;20765;-63
2023/09/05 09:36:10;;;;;;;3.83;1.55;;;;;;;22.33;55.76;97760.38;4963329;28;20046;-62
2023/09/05 09:38:38;;;;;;;2.42;1.30;;;;;;;22.39;56.58;97752.78;4960732;28;20058;-62
2023/09/05 09:41:06;;;;;;;3.33;1.60;;;;;;;22.42;58.14;97757.66;4973737;28;20053;-62
2023/09/05 09:43:37;;;;;;;4.25;1.42;;;;;;;22.54;56.38;97764.47;4967773;28;21378;-62
2023/09/05 09:46:08;;;;;;;3.70;1.48;;;;;;;22.57;56.75;97755.59;4951880;28;20500;-62
2023/09/05 09:48:36;;;;;;;4.13;1.60;;;;;;;22.57;57.79;97753.66;4967156;28;20049;-61
2023/09/05 09:51:06;;;;;;;4.45;1.75;;;;;;;22.65;57.25;97748.44;4975261;28;20118;-62
2023/09/05 09:53:38;;;;;;;6.40;1.92;;;;;;;22.67;56.92;97741.47;4977757;28;20074;-62
2023/09/05 09:56:10;;;;;;;4.32;1.70;;;;;;;22.78;56.69;97747.50;4978033;28;20094;-62
2023/09/05 09:58:40;;;;;;;5.85;1.75;;;;;;;22.81;57.24;97744.09;4979111;28;20051;-62
2023/09/05 10:01:12;;;;;;;6.33;2.00;;;;;;;22.85;56.67;97739.53;4969353;28;20569;-62
2023/09/05 10:03:41;;;;;;;5.15;1.85;;;;;;;22.85;56.56;97733.22;4980727;28;20108;-62
2023/09/05 10:06:09;;;;;;;6.35;1.63;;;;;;;22.86;56.11;97724.59;4974081;28;20138;-62
2023/09/05 10:08:36;;;;;;;4.55;1.50;;;;;;;22.95;56.42;97738.41;4970641;28;20039;-62
2023/09/05 10:11:11;;;;;;;5.60;1.38;;;;;;;23.07;56.14;97728.66;4987222;28;20043;-61
2023/09/05 10:13:41;;;;;;;4.38;1.65;;;;;;;23.15;54.91;97733.38;4980225;28;20038;-62
2023/09/05 10:16:08;;;;;;;5.13;1.83;;;;;;;23.20;54.46;97735.13;4973939;28;20052;-62
2023/09/05 10:18:38;;;;;;;6.85;1.80;;;;;;;23.21;53.82;97732.06;4990519;28;20116;-62
2023/09/05 10:21:05;;;;;;;3.92;1.27;;;;;;;23.21;53.04;97739.50;4968714;28;20444;-61
2023/09/05 10:23:33;;;;;;;2.95;1.40;;;;;;;23.27;53.26;97735.47;4980880;28;20101;-62
2023/09/05 10:26:05;;;;;;;4.43;1.50;;;;;;;23.35;52.87;97742.13;4968047;28;20047;-62
2023/09/05 10:28:32;;;;;;;3.03;1.33;;;;;;;23.43;52.16;97737.75;4963696;28;20051;-62
2023/09/05 10:31:12;;;;;;;3.60;1.50;;;;;;;23.48;52.20;97727.31;4972824;28;20046;-62
2023/09/05 10:33:43;;;;;;;2.70;1.30;;;;;;;23.52;51.42;97736.56;4982145;28;20049;-62
2023/09/05 10:36:28;;;;;;;;;;;;;;;23.62;50.25;97742.91;4984894;28;20145;-62
2023/09/05 10:38:57;;;;;;;4.50;1.33;;;;;;;23.62;49.67;97740.13;4966715;28;19930;-60
2023/09/05 10:41:36;;;;;;;2.55;1.20;;;;;;;23.64;49.34;97737.84;4994678;28;20048;-65
2023/09/05 10:44:06;;;;;;;2.63;1.17;;;;;;;23.72;49.14;97736.19;4963831;28;20046;-64
2023/09/05 10:46:32;;;;;;;3.05;1.30;;;;;;;23.72;49.32;97734.25;4973229;28;20498;-62
2023/09/05 10:49:11;;;;;;;2.90;1.30;;;;;;;23.85;49.88;97731.59;4986396;28;20038;-61
2023/09/05 10:52:17;;;;;;;2.83;1.20;;;;;;;23.93;48.62;97729.94;4975655;28;20125;-60
2023/09/05 10:54:44;;;;;;;3.25;1.20;;;;;;;24.03;48.32;97729.56;4945869;28;20510;-61
2023/09/05 10:57:40;;;;;;;3.67;1.40;;;;;;;24.19;49.14;97726.25;4970420;28;20042;-61
2023/09/05 11:00:29;;;;;;;4.25;1.50;;;;;;;24.17;49.51;97715.50;4974700;28;20038;-61
2023/09/05 11:03:12;;;;;;;3.40;1.33;;;;;;;24.20;48.78;97720.38;4977550;28;20034;-61
2023/09/05 11:05:42;;;;;;;4.40;1.48;;;;;;;24.10;49.10;97721.56;4968350;28;20047;-61
2023/09/05 11:08:22;;;;;;;3.38;1.35;;;;;;;24.09;49.31;97724.63;4982823;28;20190;-60
2023/09/05 11:10:55;;;;;;;2.50;1.10;;;;;;;24.11;48.46;97720.44;4964130;28;20074;-60
2023/09/05 11:13:21;;;;;;;5.82;1.13;;;;;;;24.29;48.50;97718.38;4971292;28;20050;-60
2023/09/05 11:15:57;;;;;;;2.80;1.02;;;;;;;24.39;47.22;97716.34;4967251;28;20046;-60
2023/09/05 11:18:24;;;;;;;5.95;1.25;;;;;;;24.60;48.36;97726.66;4981738;28;20051;-61
2023/09/05 11:20:51;;;;;;;2.83;1.17;;;;;;;24.66;47.47;97720.56;4941297;28;20057;-58
2023/09/05 11:23:28;;;;;;;3.15;1.20;;;;;;;24.70;47.17;97726.25;4940626;28;20058;-61
2023/09/05 11:26:00;;;;;;;3.70;1.15;;;;;;;24.69;47.69;97713.53;4958562;28;20062;-62
2023/09/05 11:28:27;;;;;;;3.60;1.27;;;;;;;24.85;45.85;97724.88;4983272;28;20050;-62
2023/09/05 11:31:02;;;;;;;2.65;1.25;;;;;;;24.96;45.45;97721.69;4959388;28;20078;-59
2023/09/05 11:33:31;;;;;;;2.97;1.17;;;;;;;25.02;46.86;97715.59;4979703;28;20039;-62
2023/09/05 11:36:04;;;;;;;3.88;0.90;;;;;;;24.94;45.14;97717.28;4969273;28;20069;-61
2023/09/05 11:38:45;;;;;;;1.73;1.02;;;;;;;24.93;45.46;97723.16;4969501;28;20130;-62